Antonia, Missouri
Current Conditions -  °F | °C
As of 6:53 PM on Wednesday 22 Oct 2014 (Local Time) from KCPS Reporting Station
Clear Clear  
Wind Chill: 54°   Ceiling: Unl
Heat Index: 54°   Visibility: 10mi
Dew Point: 43°   Wind: 6mph
Humidity: 66%   Direction: 120°ESE
Pressure: 30.21"   Gusts: NA
Location:  38.3874°N, 90.4319°W
Report Text: KCPS 222353Z 12005KT 10SM CLR 12/06 A3021 RMK AO2 SLP230 T01220061 10183 20122 56012
Loading
Personal Weather Stations






























Interactive Weather Map
Tropical Storm Tracking
New forecast layout! Learn more

10-Day Weather Forecast

Advertisements
Track Severe Weather on mobile